Thursday, October 23, 2014, 4:34 PM EDT

KFDK, Frederick, Frederick Municipal Airport

Location: Frederick, MD, United States Lat: 39.417
Local Time: 4:34 PM EDT (20:34 GMT) Lon: -77.374
Time Zone: US/Eastern Elev: 301 ft

Show me the last for .
Show Decoded

2014-10-23 15:53 METAR KFDK 231953Z 33016G21KT 10SM SCT048 19/07 A2991 =
2014-10-23 14:45 METAR KFDK 231845Z 35015G20KT 10SM BKN044 19/07 A2990 =
2014-10-23 13:45 METAR KFDK 231745Z 34017G22 10SM BKN042 19/07 A2991 =
2014-10-23 12:45 METAR KFDK 231645Z 34011G25KT 10SM BKN040 18/07 A2992 =
2014-10-23 11:48 METAR KFDK 231548Z 34017G22KT 10SM BKN040 17/06 A2994 =
2014-10-23 10:55 METAR KFDK 231455Z 32013G17KT 10SM SCT042 17/06 A2994 =
2014-10-23 09:50 METAR KFDK 231350Z 32009G15KT 10SM BKN040 16/07 A2994 =
2014-10-23 08:55 METAR KFDK 231255Z 33008KT 10SM BKN038 14/07 A2995 =
2014-10-23 07:59 METAR KFDK 231159Z 34010G15 10SM BKN036 14/06 A2995 =
2014-10-23 06:50 METAR KFDK 231050Z 34009G15KT 10SM BKN034 14/06 A2994 =
2014-10-23 06:30 METAR KFDK 231030Z AUTO 35009G15KT 10SM OVC034 13/06 A2994 RMK AO2 =
2014-10-23 06:10 METAR KFDK 231010Z AUTO 32011KT 10SM OVC034 13/06 A2994 RMK AO2 LTG DSNT E =
2014-10-23 05:50 METAR KFDK 230950Z AUTO 31009G14KT 10SM OVC034 13/06 A2994 RMK AO2 LTG DSNT E =
2014-10-23 05:30 METAR KFDK 230930Z AUTO 34008G18KT 10SM OVC032 13/06 A2994 RMK AO2 LTG DSNT E =
2014-10-23 05:10 METAR KFDK 230910Z AUTO 33013KT 10SM OVC032 13/06 A2994 RMK AO2 LTG DSNT E =
2014-10-23 04:50 METAR KFDK 230850Z AUTO 34010G16KT 10SM OVC034 13/06 A2993 RMK AO2 LTG DSNT E =
2014-10-23 04:30 METAR KFDK 230830Z AUTO 32008KT 10SM OVC034 13/06 A2993 RMK AO2 LTG DSNT E =
2014-10-23 04:10 METAR KFDK 230810Z AUTO 33011KT 10SM OVC034 13/05 A2993 RMK AO2 LTG DSNT E =
2014-10-23 03:50 METAR KFDK 230750Z AUTO 32011G18KT 10SM OVC034 13/05 A2993 RMK AO2 LTG DSNT E =
2014-10-23 03:30 METAR KFDK 230730Z AUTO 30018G23KT 10SM OVC034 13/05 A2993 RMK AO2 LTG DSNT E =
2014-10-23 03:10 METAR KFDK 230710Z AUTO 30015G20KT 10SM BKN036 OVC046 13/05 A2992 RMK AO2 LTG
                 DSNT E =
2014-10-23 02:50 METAR KFDK 230650Z AUTO 31012G15KT 10SM BKN038 OVC044 13/05 A2994 RMK AO2 LTG
                 DSNT E =
2014-10-23 02:30 METAR KFDK 230630Z AUTO 32010G15KT 10SM OVC038 13/05 A2995 RMK AO2 LTG DSNT E =
2014-10-23 02:10 METAR KFDK 230610Z AUTO 32007KT 10SM OVC040 13/05 A2996 RMK AO2 LTG DSNT E =
2014-10-23 01:50 METAR KFDK 230550Z AUTO 32011G19KT 10SM BKN040 13/05 A2996 RMK AO2 LTG DSNT E =
2014-10-23 01:30 METAR KFDK 230530Z AUTO 32009G16KT 10SM SCT042 13/05 A2996 RMK AO2 LTG DSNT E =
2014-10-23 01:10 METAR KFDK 230510Z AUTO 32009KT 10SM CLR 13/05 A2996 RMK AO2 LTG DSNT E =
2014-10-23 00:50 METAR KFDK 230450Z AUTO 33007G16KT 10SM SCT036 13/05 A2997 RMK AO2 LTG DSNT E =
2014-10-23 00:30 METAR KFDK 230430Z AUTO 32008KT 10SM BKN036 12/06 A2997 RMK AO2 LTG DSNT E =
2014-10-23 00:10 METAR KFDK 230410Z AUTO 32007KT 10SM OVC036 13/06 A2998 RMK AO2 LTG DSNT E =
2014-10-22 23:50 METAR KFDK 230350Z AUTO 33009G14KT 10SM OVC036 13/06 A2999 RMK AO2 LTG DSNT E =
2014-10-22 23:30 METAR KFDK 230330Z AUTO 32007KT 10SM OVC038 13/06 A2999 RMK AO2 LTG DSNT E =
2014-10-22 23:10 METAR KFDK 230310Z AUTO 33006KT 10SM SCT040 13/06 A2999 RMK AO2 LTG DSNT E =
2014-10-22 22:50 METAR KFDK 230250Z AUTO 33007G17KT 10SM BKN036 13/06 A3000 RMK AO2 LTG DSNT E =
2014-10-22 22:30 METAR KFDK 230230Z AUTO 34010G15KT 10SM BKN036 BKN075 13/06 A2999 RMK AO2 LTG
                 DSNT E =
2014-10-22 22:10 METAR KFDK 230210Z AUTO 32010G16KT 10SM OVC038 13/06 A3000 RMK AO2 LTG DSNT E =
2014-10-22 21:50 METAR KFDK 230150Z AUTO 33008KT 10SM BKN038 BKN110 13/06 A3000 RMK AO2 LTG DSNT
                 E =
2014-10-22 21:30 METAR KFDK 230130Z AUTO 33008KT 10SM BKN038 BKN110 13/06 A3000 RMK AO2 LTG DSNT
                 E AND SE =
2014-10-22 21:10 METAR KFDK 230110Z AUTO 33010KT 10SM OVC036 14/06 A3001 RMK AO2 LTG DSNT E =
2014-10-22 20:50 METAR KFDK 230050Z AUTO 33009KT 10SM OVC034 15/06 A3000 RMK AO2 LTG DSNT E =
2014-10-22 19:57 METAR KFDK 222357Z 35010G15KT 10SM OVC035 16/07 A2999 =
2014-10-22 18:55 METAR KFDK 222255Z 35008KT 10SM OVC037 16/07 A2999 =
2014-10-22 17:55 METAR KFDK 222155Z 35010G16KT 10SM OVC037 16/08 A2998 =
2014-10-22 16:45 METAR KFDK 222045Z 36008G16KT 10SM BKN031 16/09 A2999 =

Support USWX by starting your Amazon purchase here.